createdAt,value
2023-05-05T00:00:30.228Z,42.93
2023-05-05T00:03:35.551Z,42.88
2023-05-05T00:06:38.864Z,42.69
2023-05-05T00:09:42.020Z,42.75
2023-05-05T00:12:45.241Z,42.64
2023-05-05T00:15:51.927Z,42.83
2023-05-05T00:18:54.988Z,42.81
2023-05-05T00:21:58.031Z,42.93
2023-05-05T00:25:01.192Z,42.77
2023-05-05T00:28:04.348Z,42.85
2023-05-05T00:31:08.981Z,42.75
2023-05-05T00:34:12.114Z,42.82
2023-05-05T00:37:15.257Z,42.53
2023-05-05T00:40:18.752Z,42.82
2023-05-05T00:43:21.861Z,42.72
2023-05-05T00:46:28.498Z,42.70
2023-05-05T00:49:32.037Z,42.69
2023-05-05T00:52:36.022Z,42.65
2023-05-05T00:55:39.197Z,42.60
2023-05-05T00:58:43.695Z,42.65
2023-05-05T01:01:48.489Z,42.76
2023-05-05T01:04:51.774Z,42.57
2023-05-05T01:08:07.267Z,42.74
2023-05-05T01:11:19.054Z,42.80
2023-05-05T01:14:29.498Z,42.62
2023-05-05T01:17:39.968Z,42.62
2023-05-05T01:20:49.451Z,42.69
2023-05-05T01:24:33.723Z,42.61
2023-05-05T01:27:51.261Z,42.48
2023-05-05T01:31:22.869Z,42.63
2023-05-05T01:34:33.499Z,42.65
2023-05-05T01:37:42.366Z,42.49
2023-05-05T01:40:50.252Z,42.56
2023-05-05T01:43:55.544Z,42.51
2023-05-05T01:47:00.843Z,42.60
2023-05-05T01:50:08.244Z,42.44
2023-05-05T01:53:12.831Z,42.68
2023-05-05T01:56:17.199Z,42.59
2023-05-05T01:59:22.149Z,42.45
2023-05-05T02:02:29.386Z,42.56
2023-05-05T02:05:34.327Z,42.11
2023-05-05T02:08:39.907Z,42.48
2023-05-05T02:11:43.359Z,42.47
2023-05-05T02:14:47.849Z,42.46
2023-05-05T02:17:53.246Z,42.54
2023-05-05T02:20:57.725Z,42.43
2023-05-05T02:24:01.226Z,42.37
2023-05-05T02:27:07.533Z,42.36
2023-05-05T02:30:13.012Z,42.31
2023-05-05T02:33:20.481Z,42.46
2023-05-05T02:36:29.340Z,42.51
2023-05-05T02:39:36.661Z,42.33
2023-05-05T02:42:42.662Z,42.24
2023-05-05T02:45:45.732Z,42.40
2023-05-05T02:48:49.049Z,42.34
2023-05-05T02:51:53.646Z,42.28
2023-05-05T02:54:56.786Z,42.39
2023-05-05T02:58:06.734Z,42.41
2023-05-05T03:01:19.969Z,41.78
2023-05-05T03:04:27.751Z,42.19
2023-05-05T03:07:39.543Z,42.23
2023-05-05T03:10:48.593Z,42.38
2023-05-05T03:13:57.254Z,42.25
2023-05-05T03:17:02.569Z,42.15
2023-05-05T03:20:08.290Z,42.20
2023-05-05T03:23:14.652Z,42.03
2023-05-05T03:26:18.901Z,42.26
2023-05-05T03:29:22.041Z,42.03
2023-05-05T03:32:25.584Z,42.80
2023-05-05T03:35:28.789Z,42.33
2023-05-05T03:38:33.265Z,42.37
2023-05-05T03:41:36.338Z,42.63
2023-05-05T03:44:39.309Z,42.52
2023-05-05T03:47:42.422Z,42.79
2023-05-05T03:50:46.296Z,42.64
2023-05-05T03:53:50.728Z,42.28
2023-05-05T03:56:53.724Z,43.04
2023-05-05T03:59:56.720Z,42.40
2023-05-05T04:02:59.950Z,42.57
2023-05-05T04:06:03.287Z,42.34
2023-05-05T04:09:07.727Z,43.75
2023-05-05T04:12:10.863Z,42.85
2023-05-05T04:15:14.037Z,42.94
2023-05-05T04:18:17.098Z,42.96
2023-05-05T04:21:20.162Z,42.86
2023-05-05T04:24:26.007Z,41.52
2023-05-05T04:27:30.419Z,42.44
2023-05-05T04:30:33.555Z,42.64
2023-05-05T04:33:36.883Z,42.51
2023-05-05T04:36:39.951Z,42.28
2023-05-05T04:39:44.471Z,42.32
2023-05-05T04:42:47.439Z,42.32
2023-05-05T04:45:54.013Z,42.31
2023-05-05T04:48:57.085Z,42.43
2023-05-05T04:52:00.612Z,42.35
2023-05-05T04:55:05.540Z,42.40
2023-05-05T04:58:08.692Z,42.50
2023-05-05T05:01:11.812Z,42.60
2023-05-05T05:04:18.579Z,42.45
2023-05-05T05:07:21.771Z,42.48
2023-05-05T05:10:26.173Z,42.62
2023-05-05T05:13:29.122Z,42.58
2023-05-05T05:16:32.163Z,42.60
2023-05-05T05:19:35.479Z,42.75
2023-05-05T05:22:39.052Z,42.65
2023-05-05T05:25:43.811Z,42.61
2023-05-05T05:28:46.901Z,42.92
2023-05-05T05:31:50.304Z,42.87
2023-05-05T05:34:53.429Z,42.86
2023-05-05T05:37:56.430Z,42.84
2023-05-05T05:41:01.212Z,42.75
2023-05-05T05:44:04.207Z,43.07
2023-05-05T05:47:07.353Z,43.01
2023-05-05T05:50:11.052Z,43.23
2023-05-05T05:53:14.270Z,42.87
2023-05-05T05:56:18.725Z,42.77
2023-05-05T05:59:21.877Z,42.79
2023-05-05T06:02:26.548Z,42.95
2023-05-05T06:05:30.095Z,43.14
2023-05-05T06:08:33.303Z,42.80
2023-05-05T06:11:37.839Z,42.78
2023-05-05T06:14:41.273Z,44.36
2023-05-05T06:17:44.437Z,44.34
2023-05-05T06:20:50.787Z,43.51
2023-05-05T06:23:53.977Z,44.20
2023-05-05T06:26:59.366Z,43.95
2023-05-05T06:30:02.359Z,42.73
2023-05-05T06:33:05.625Z,42.98
2023-05-05T06:36:11.253Z,42.82
2023-05-05T06:39:16.054Z,43.49
2023-05-05T06:42:20.824Z,44.12
2023-05-05T06:45:23.909Z,44.71
2023-05-05T06:48:27.052Z,43.91
2023-05-05T06:51:30.239Z,43.48
2023-05-05T06:54:33.429Z,42.45
2023-05-05T06:57:37.919Z,42.62
2023-05-05T07:00:41.535Z,42.09
2023-05-05T07:03:44.810Z,42.17
2023-05-05T07:06:48.000Z,42.32
2023-05-05T07:09:51.174Z,42.35
2023-05-05T07:12:56.061Z,42.30
2023-05-05T07:15:59.121Z,42.04
2023-05-05T07:19:05.794Z,42.26
2023-05-05T07:22:08.950Z,42.35
2023-05-05T07:25:12.065Z,42.12
2023-05-05T07:28:16.795Z,42.56
2023-05-05T07:31:22.073Z,42.70
2023-05-05T07:34:25.563Z,42.64
2023-05-05T07:37:28.690Z,42.70
2023-05-05T07:40:32.130Z,42.44
2023-05-05T07:43:39.268Z,42.34
2023-05-05T07:46:42.898Z,42.37
2023-05-05T07:49:45.957Z,42.49
2023-05-05T07:52:54.021Z,42.49
2023-05-05T07:56:05.453Z,42.54
2023-05-05T07:59:09.925Z,42.45
2023-05-05T08:02:13.945Z,42.36
2023-05-05T08:05:17.519Z,42.16
2023-05-05T08:08:24.943Z,42.12
2023-05-05T08:11:29.651Z,42.07
2023-05-05T08:14:34.453Z,42.01
2023-05-05T08:17:48.812Z,42.02
2023-05-05T08:20:52.946Z,42.07
2023-05-05T08:23:56.056Z,42.08
2023-05-05T08:26:59.293Z,41.85
2023-05-05T08:30:04.523Z,41.71
2023-05-05T08:33:07.632Z,41.89
2023-05-05T08:36:11.655Z,41.58
2023-05-05T08:39:14.773Z,41.85
2023-05-05T08:42:32.758Z,41.80
2023-05-05T08:45:42.042Z,41.59
2023-05-05T08:48:46.450Z,41.70
2023-05-05T08:51:52.176Z,41.62
2023-05-05T08:54:58.702Z,41.31
2023-05-05T08:58:03.462Z,41.22
2023-05-05T09:01:09.247Z,41.66
2023-05-05T09:04:12.540Z,41.41
2023-05-05T09:07:15.740Z,41.48
2023-05-05T09:10:19.587Z,41.62
2023-05-05T09:13:22.781Z,41.43
2023-05-05T09:16:27.317Z,41.49
2023-05-05T09:19:30.494Z,41.61
2023-05-05T09:25:40.535Z,41.97
2023-05-05T09:28:53.589Z,41.63
2023-05-05T09:32:09.058Z,41.74
2023-05-05T09:35:12.447Z,41.78
2023-05-05T09:38:15.493Z,42.11
2023-05-05T09:41:37.926Z,42.01
2023-05-05T09:44:41.369Z,42.18
2023-05-05T09:47:46.875Z,41.88
2023-05-05T09:50:50.188Z,42.02
2023-05-05T09:53:53.534Z,42.13
2023-05-05T09:56:57.456Z,42.32
2023-05-05T10:00:01.801Z,41.70
2023-05-05T10:03:06.798Z,42.00
2023-05-05T10:06:10.015Z,42.19
2023-05-05T10:09:13.058Z,41.93
2023-05-05T10:12:16.357Z,42.32
2023-05-05T10:15:20.094Z,42.04
2023-05-05T10:18:25.860Z,41.70
2023-05-05T10:21:34.653Z,41.73
2023-05-05T10:24:40.898Z,42.19
2023-05-05T10:30:53.449Z,42.17
2023-05-05T10:34:04.626Z,42.11
2023-05-05T10:37:08.515Z,42.01
2023-05-05T10:40:12.168Z,42.41
2023-05-05T10:43:15.605Z,42.26
2023-05-05T10:46:19.353Z,41.81
2023-05-05T10:49:34.582Z,41.98
2023-05-05T10:52:43.192Z,42.02
2023-05-05T10:55:55.330Z,42.11
2023-05-05T10:59:00.806Z,42.06
2023-05-05T11:02:19.990Z,41.85
2023-05-05T11:05:24.736Z,41.83
2023-05-05T11:08:28.228Z,41.69
2023-05-05T11:12:04.564Z,41.84
2023-05-05T11:15:38.036Z,41.83
2023-05-05T11:18:44.492Z,41.79
2023-05-05T11:22:03.111Z,41.94
2023-05-05T11:25:41.147Z,41.83
2023-05-05T11:29:04.767Z,41.30
2023-05-05T11:32:15.745Z,41.63
2023-05-05T11:35:19.088Z,41.23
2023-05-05T11:38:27.488Z,41.26
2023-05-05T11:42:13.767Z,41.18
2023-05-05T11:45:24.220Z,41.06
2023-05-05T11:48:27.698Z,41.39
2023-05-05T11:51:31.045Z,41.08
2023-05-05T11:54:36.378Z,41.14
2023-05-05T11:57:39.598Z,41.22
2023-05-05T12:00:42.779Z,41.13
2023-05-05T12:03:46.374Z,41.28
2023-05-05T12:06:50.215Z,40.99
2023-05-05T12:09:55.135Z,41.42
2023-05-05T12:12:58.280Z,41.00
2023-05-05T12:16:10.122Z,41.12
2023-05-05T12:19:14.498Z,41.06
2023-05-05T12:22:22.403Z,40.88
2023-05-05T12:25:27.049Z,42.22
2023-05-05T12:28:44.754Z,42.14
2023-05-05T12:31:47.992Z,42.05
2023-05-05T12:34:54.484Z,41.92
2023-05-05T12:37:58.448Z,42.16
2023-05-05T12:45:28.379Z,41.24
2023-05-05T12:48:31.964Z,41.19
2023-05-05T12:51:36.605Z,41.25
2023-05-05T12:54:54.839Z,41.26
2023-05-05T12:58:02.234Z,40.88
2023-05-05T13:01:12.966Z,40.86
2023-05-05T13:04:16.606Z,41.04
2023-05-05T13:07:21.340Z,40.99
2023-05-05T13:10:25.382Z,40.94
2023-05-05T13:13:28.596Z,41.06
2023-05-05T13:16:34.004Z,40.90
2023-05-05T13:19:42.050Z,40.86
2023-05-05T13:22:45.906Z,40.99
2023-05-05T13:25:49.041Z,40.96
2023-05-05T13:28:52.223Z,40.81
2023-05-05T13:31:56.683Z,40.82
2023-05-05T13:34:59.803Z,40.78
2023-05-05T13:38:03.023Z,40.86
2023-05-05T13:41:06.330Z,40.67
2023-05-05T13:44:09.430Z,40.58
2023-05-05T13:47:14.130Z,41.17
2023-05-05T13:50:18.410Z,43.00
2023-05-05T13:53:21.802Z,44.78
2023-05-05T13:56:26.371Z,45.90
2023-05-05T13:59:30.088Z,46.02
2023-05-05T14:02:34.634Z,46.84
2023-05-05T14:05:42.614Z,47.30
2023-05-05T14:08:46.291Z,47.54
2023-05-05T14:11:49.522Z,48.39
2023-05-05T14:14:52.818Z,47.54
2023-05-05T14:17:58.119Z,49.63
2023-05-05T14:21:01.390Z,50.22
2023-05-05T14:24:04.701Z,50.88
2023-05-05T14:27:08.125Z,51.48
2023-05-05T14:30:12.119Z,50.70
2023-05-05T14:33:17.073Z,51.84
2023-05-05T14:36:20.957Z,51.76
2023-05-05T14:39:24.033Z,43.24
2023-05-05T14:42:27.329Z,42.53
2023-05-05T14:45:30.767Z,41.29
2023-05-05T14:48:36.088Z,41.48
2023-05-05T14:51:39.151Z,41.11
2023-05-05T14:54:42.308Z,40.86
2023-05-05T14:57:45.417Z,40.58
2023-05-05T15:00:48.483Z,41.64
2023-05-05T15:03:54.020Z,43.94
2023-05-05T15:06:57.184Z,44.54
2023-05-05T15:10:00.412Z,45.64
2023-05-05T15:13:03.535Z,46.18
2023-05-05T15:16:07.481Z,45.46
2023-05-05T15:19:11.993Z,45.22
2023-05-05T15:22:15.156Z,43.64
2023-05-05T15:25:19.365Z,44.73
2023-05-05T15:28:22.439Z,44.07
2023-05-05T15:31:25.559Z,43.90
2023-05-05T15:34:30.011Z,43.89
2023-05-05T15:37:33.226Z,43.41
2023-05-05T15:40:40.583Z,43.74
2023-05-05T15:43:43.674Z,43.98
2023-05-05T15:46:48.337Z,43.83
2023-05-05T15:49:55.043Z,44.45
2023-05-05T15:52:59.124Z,45.13
2023-05-05T15:56:02.890Z,45.17
2023-05-05T15:59:05.965Z,44.22
2023-05-05T16:02:09.195Z,42.91
2023-05-05T16:05:14.547Z,42.42
2023-05-05T16:08:17.546Z,42.34
2023-05-05T16:11:22.462Z,41.76
2023-05-05T16:14:25.726Z,41.20
2023-05-05T16:17:29.124Z,41.32
2023-05-05T16:20:34.007Z,41.14
2023-05-05T16:23:37.076Z,40.74
2023-05-05T16:26:40.118Z,40.84
2023-05-05T16:29:43.149Z,40.78
2023-05-05T16:32:47.534Z,40.87
2023-05-05T16:35:51.989Z,40.81
2023-05-05T16:38:55.528Z,40.29
2023-05-05T16:41:58.728Z,40.44
2023-05-05T16:45:01.820Z,40.72
2023-05-05T16:48:08.220Z,40.55
2023-05-05T16:51:13.624Z,40.54
2023-05-05T16:54:16.774Z,40.14
2023-05-05T16:57:19.862Z,40.87
2023-05-05T17:00:22.918Z,40.76
2023-05-05T17:03:26.499Z,40.88
2023-05-05T17:06:33.245Z,40.44
2023-05-05T17:09:36.285Z,40.49
2023-05-05T17:12:39.790Z,39.88
2023-05-05T17:15:44.306Z,40.33
2023-05-05T17:18:47.829Z,40.25
2023-05-05T17:21:52.422Z,40.41
2023-05-05T17:24:55.486Z,40.12
2023-05-05T17:27:58.700Z,39.92
2023-05-05T17:31:02.141Z,39.88
2023-05-05T17:34:05.165Z,39.92
2023-05-05T17:37:10.492Z,39.63
2023-05-05T17:40:13.845Z,39.64
2023-05-05T17:43:17.080Z,39.60
2023-05-05T17:46:20.310Z,40.07
2023-05-05T17:49:25.356Z,39.63
2023-05-05T17:52:29.949Z,39.57
2023-05-05T17:55:33.026Z,39.73
2023-05-05T17:58:36.066Z,39.70
2023-05-05T18:01:39.111Z,39.75
2023-05-05T18:04:42.543Z,40.11
2023-05-05T18:07:47.053Z,40.32
2023-05-05T18:10:50.092Z,38.30
2023-05-05T18:13:53.227Z,37.46
2023-05-05T18:16:56.391Z,36.92
2023-05-05T18:19:59.471Z,36.33
2023-05-05T18:23:03.929Z,35.79
2023-05-05T18:26:07.313Z,35.88
2023-05-05T18:29:10.694Z,36.04
2023-05-05T18:32:13.867Z,36.23
2023-05-05T18:35:17.315Z,36.32
2023-05-05T18:38:21.799Z,36.13
2023-05-05T18:41:24.847Z,35.90
2023-05-05T18:44:28.019Z,37.72
2023-05-05T18:47:31.209Z,38.93
2023-05-05T18:50:34.362Z,40.23
2023-05-05T18:53:38.895Z,40.28
2023-05-05T18:56:42.957Z,40.70
2023-05-05T18:59:46.094Z,40.45
2023-05-05T19:02:49.199Z,41.01
2023-05-05T19:05:52.379Z,41.11
2023-05-05T19:08:57.361Z,41.37
2023-05-05T19:12:00.496Z,40.94
2023-05-05T19:15:03.612Z,41.54
2023-05-05T19:18:06.913Z,41.46
2023-05-05T19:21:10.019Z,41.67
2023-05-05T19:24:14.600Z,41.80
2023-05-05T19:27:17.898Z,42.15
2023-05-05T19:30:21.089Z,42.17
2023-05-05T19:33:24.574Z,41.91
2023-05-05T19:36:27.825Z,42.31
2023-05-05T19:39:32.621Z,42.05
2023-05-05T19:42:35.844Z,42.33
2023-05-05T19:45:39.071Z,42.18
2023-05-05T19:48:42.227Z,42.36
2023-05-05T19:51:47.635Z,42.48
2023-05-05T19:54:52.173Z,42.14
2023-05-05T19:57:55.255Z,42.06
2023-05-05T20:00:58.382Z,42.23
2023-05-05T20:04:01.517Z,42.35
2023-05-05T20:07:05.050Z,42.59
2023-05-05T20:10:13.312Z,42.38
2023-05-05T20:13:16.834Z,42.22
2023-05-05T20:16:20.164Z,42.69
2023-05-05T20:19:23.329Z,42.33
2023-05-05T20:22:27.142Z,42.38
2023-05-05T20:25:32.020Z,42.77
2023-05-05T20:28:35.315Z,42.70
2023-05-05T20:31:38.582Z,42.60
2023-05-05T20:34:41.607Z,42.67
2023-05-05T20:37:45.839Z,42.47
2023-05-05T20:40:50.698Z,42.58
2023-05-05T20:43:53.818Z,42.45
2023-05-05T20:46:56.947Z,42.30
2023-05-05T20:50:00.082Z,42.53
2023-05-05T20:53:03.235Z,42.42
2023-05-05T20:56:09.090Z,42.65
2023-05-05T20:59:12.419Z,42.41
2023-05-05T21:02:15.459Z,42.42
2023-05-05T21:05:18.645Z,42.38
2023-05-05T21:08:21.824Z,42.97
2023-05-05T21:11:26.333Z,42.83
2023-05-05T21:14:29.451Z,42.80
2023-05-05T21:17:32.523Z,42.52
2023-05-05T21:20:36.374Z,42.38
2023-05-05T21:23:39.487Z,42.95
2023-05-05T21:26:45.400Z,42.65
2023-05-05T21:29:52.178Z,42.28
2023-05-05T21:32:55.231Z,42.54
2023-05-05T21:35:58.305Z,42.43
2023-05-05T21:39:02.129Z,42.23
2023-05-05T21:42:06.721Z,42.49
2023-05-05T21:45:11.660Z,42.32
2023-05-05T21:48:14.908Z,42.16
2023-05-05T21:51:18.046Z,42.23
2023-05-05T21:54:21.066Z,42.13
2023-05-05T21:57:25.517Z,42.34
2023-05-05T22:00:28.606Z,42.39
2023-05-05T22:03:31.798Z,42.32
2023-05-05T22:06:35.584Z,42.18
2023-05-05T22:09:38.625Z,42.12
2023-05-05T22:12:43.162Z,41.65
2023-05-05T22:15:47.427Z,42.08
2023-05-05T22:18:51.526Z,42.14
2023-05-05T22:21:55.080Z,42.07
2023-05-05T22:24:58.110Z,42.02
2023-05-05T22:28:02.646Z,42.07
2023-05-05T22:34:09.189Z,42.18
2023-05-05T22:37:12.320Z,42.32
2023-05-05T22:40:15.397Z,42.01
2023-05-05T22:43:20.164Z,41.63
2023-05-05T22:46:23.323Z,42.24
2023-05-05T22:49:26.565Z,41.81
2023-05-05T22:52:29.540Z,42.01
2023-05-05T22:55:32.635Z,41.92
2023-05-05T22:58:37.105Z,41.94
2023-05-05T23:01:40.245Z,41.66
2023-05-05T23:04:44.892Z,41.93
2023-05-05T23:07:48.131Z,41.59
2023-05-05T23:10:51.254Z,42.01
2023-05-05T23:13:55.764Z,42.03
2023-05-05T23:16:59.325Z,41.97
2023-05-05T23:20:02.753Z,42.05
2023-05-05T23:23:05.909Z,41.99
2023-05-05T23:26:09.037Z,42.02
2023-05-05T23:29:13.500Z,41.62
2023-05-05T23:32:16.618Z,42.15
2023-05-05T23:35:19.788Z,41.80
2023-05-05T23:38:22.803Z,41.85
2023-05-05T23:41:25.860Z,42.30
2023-05-05T23:44:31.102Z,42.02
2023-05-05T23:47:34.272Z,41.93
2023-05-05T23:50:37.418Z,42.44
2023-05-05T23:53:40.497Z,42.31
2023-05-05T23:56:43.676Z,42.10
2023-05-05T23:59:48.115Z,41.98
